createdAt,value
2019-02-12T00:01:17.318Z,3.30
2019-02-12T00:03:46.137Z,3.30
2019-02-12T00:06:14.925Z,3.30
2019-02-12T00:08:43.625Z,3.40
2019-02-12T00:11:12.303Z,3.50
2019-02-12T00:16:09.395Z,3.50
2019-02-12T00:18:38.078Z,3.50
2019-02-12T00:21:09.123Z,3.60
2019-02-12T00:23:37.560Z,3.50
2019-02-12T00:26:06.269Z,3.50
2019-02-12T00:28:34.962Z,3.50
2019-02-12T00:31:03.616Z,3.40
2019-02-12T00:33:32.289Z,3.20
2019-02-12T00:38:29.349Z,3.40
2019-02-12T00:40:58.432Z,3.40
2019-02-12T00:43:27.185Z,3.50
2019-02-12T00:45:55.956Z,3.70
2019-02-12T00:48:24.713Z,3.70
2019-02-12T00:50:53.382Z,3.70
2019-02-12T00:53:22.090Z,3.60
2019-02-12T00:55:50.754Z,3.70
2019-02-12T01:00:47.882Z,3.80
2019-02-12T01:03:16.806Z,3.70
2019-02-12T01:05:45.473Z,3.60
2019-02-12T01:08:14.155Z,3.60
2019-02-12T01:10:42.973Z,3.50
2019-02-12T01:13:11.693Z,3.50
2019-02-12T01:15:40.402Z,3.50
2019-02-12T01:18:09.077Z,3.40
2019-02-12T01:23:06.073Z,3.70
2019-02-12T01:25:34.729Z,3.50
2019-02-12T01:28:03.451Z,3.40
2019-02-12T01:30:32.294Z,3.40
2019-02-12T01:33:01.003Z,3.30
2019-02-12T01:35:29.693Z,3.30
2019-02-12T01:37:58.478Z,3.30
2019-02-12T01:42:55.996Z,3.30
2019-02-12T01:45:25.289Z,3.30
2019-02-12T01:47:54.317Z,3.30
2019-02-12T01:50:23.261Z,3.30
2019-02-12T01:52:51.921Z,3.40
2019-02-12T01:55:20.601Z,3.50
2019-02-12T01:57:49.289Z,3.50
2019-02-12T02:00:18.021Z,3.50
2019-02-12T02:05:15.101Z,3.40
2019-02-12T02:07:44.101Z,3.50
2019-02-12T02:10:15.201Z,3.40
2019-02-12T02:12:43.878Z,3.50
2019-02-12T02:15:12.734Z,3.60
2019-02-12T02:17:41.402Z,3.60
2019-02-12T02:20:10.223Z,3.60
2019-02-12T02:22:38.980Z,3.40
2019-02-12T02:27:36.955Z,3.60
2019-02-12T02:30:06.160Z,3.60
2019-02-12T02:32:34.818Z,3.60
2019-02-12T02:35:03.535Z,3.70
2019-02-12T02:37:32.246Z,3.70
2019-02-12T02:40:00.960Z,3.80
2019-02-12T02:42:29.683Z,3.70
2019-02-12T02:44:58.470Z,3.60
2019-02-12T02:49:55.551Z,3.60
2019-02-12T02:52:24.198Z,3.50
2019-02-12T02:54:52.919Z,3.40
2019-02-12T02:57:21.853Z,3.40
2019-02-12T02:59:50.600Z,3.40
2019-02-12T03:02:19.309Z,3.50
2019-02-12T03:04:47.994Z,3.60
2019-02-12T03:07:16.686Z,3.60
2019-02-12T03:12:13.678Z,3.40
2019-02-12T03:14:42.480Z,3.30
2019-02-12T03:17:11.218Z,3.20
2019-02-12T03:19:39.926Z,3.20
2019-02-12T03:22:08.581Z,3.30
2019-02-12T03:24:37.262Z,3.20
2019-02-12T03:27:05.984Z,3.30
2019-02-12T03:34:31.590Z,3.40
2019-02-12T03:37:00.293Z,3.50
2019-02-12T03:39:29.005Z,3.50
2019-02-12T03:41:57.716Z,3.40
2019-02-12T03:44:26.457Z,3.20
2019-02-12T03:46:55.124Z,3.10
2019-02-12T03:49:23.836Z,3.00
2019-02-12T03:54:20.846Z,3.00
2019-02-12T03:56:49.636Z,3.00
2019-02-12T03:59:18.434Z,3.10
2019-02-12T04:01:47.103Z,3.10
2019-02-12T04:04:15.773Z,3.10
2019-02-12T04:06:44.527Z,3.20
2019-02-12T04:09:13.201Z,3.30
2019-02-12T04:11:41.973Z,3.20
2019-02-12T04:16:40.261Z,3.10
2019-02-12T04:19:09.089Z,3.00
2019-02-12T04:21:37.805Z,3.00
2019-02-12T04:24:06.580Z,3.10
2019-02-12T04:26:35.354Z,3.20
2019-02-12T04:29:04.034Z,3.10
2019-02-12T04:31:32.962Z,3.20
2019-02-12T04:34:01.972Z,3.20
2019-02-12T04:38:59.089Z,3.10
2019-02-12T04:41:27.814Z,3.10
2019-02-12T04:43:56.597Z,2.90
2019-02-12T04:46:25.343Z,2.60
2019-02-12T04:48:54.055Z,2.60
2019-02-12T04:51:22.821Z,2.70
2019-02-12T04:53:51.496Z,2.80
2019-02-12T04:56:20.207Z,2.60
2019-02-12T05:01:17.727Z,3.10
2019-02-12T05:03:46.457Z,3.20
2019-02-12T05:06:15.514Z,2.90
2019-02-12T05:09:15.654Z,2.90
2019-02-12T05:11:47.709Z,2.80
2019-02-12T05:14:16.432Z,2.70
2019-02-12T05:16:45.216Z,2.80
2019-02-12T05:19:13.990Z,2.80
2019-02-12T05:21:42.775Z,2.80
2019-02-12T05:26:39.769Z,3.00
2019-02-12T05:29:08.853Z,3.00
2019-02-12T05:31:37.814Z,3.20
2019-02-12T05:34:06.565Z,3.10
2019-02-12T05:36:35.318Z,3.20
2019-02-12T05:39:04.849Z,3.20
2019-02-12T05:41:33.557Z,3.20
2019-02-12T05:44:02.219Z,3.20
2019-02-12T05:48:59.191Z,3.20
2019-02-12T05:51:27.909Z,2.90
2019-02-12T05:53:56.656Z,2.90
2019-02-12T05:56:25.339Z,2.60
2019-02-12T05:58:54.122Z,2.60
2019-02-12T06:01:22.788Z,2.60
2019-02-12T06:03:51.474Z,2.60
2019-02-12T06:06:20.196Z,2.80
2019-02-12T06:11:17.195Z,2.60
2019-02-12T06:13:45.881Z,2.70
2019-02-12T06:16:14.594Z,2.70
2019-02-12T06:18:43.284Z,2.80
2019-02-12T06:21:11.954Z,2.80
2019-02-12T06:23:40.665Z,2.90
2019-02-12T06:26:09.417Z,2.90
2019-02-12T06:28:38.227Z,2.80
2019-02-12T06:33:35.209Z,2.50
2019-02-12T06:36:03.904Z,2.70
2019-02-12T06:38:32.674Z,2.80
2019-02-12T06:41:01.347Z,2.70
2019-02-12T06:43:30.281Z,2.80
2019-02-12T06:45:59.373Z,2.90
2019-02-12T06:48:28.374Z,2.80
2019-02-12T06:53:25.453Z,2.70
2019-02-12T06:55:54.126Z,2.60
2019-02-12T06:58:22.898Z,2.80
2019-02-12T07:00:51.639Z,2.90
2019-02-12T07:03:22.716Z,2.90
2019-02-12T07:06:07.380Z,2.90
2019-02-12T07:08:57.721Z,3.00
2019-02-12T07:14:59.897Z,2.80
2019-02-12T07:18:25.300Z,2.90
2019-02-12T07:21:21.002Z,2.80
2019-02-12T07:24:43.796Z,2.90
2019-02-12T07:27:48.855Z,3.00
2019-02-12T07:30:43.073Z,2.90
2019-02-12T07:33:38.083Z,2.90
2019-02-12T07:36:22.598Z,3.00
2019-02-12T07:39:17.441Z,3.10
2019-02-12T07:42:29.328Z,3.10
2019-02-12T07:48:10.453Z,3.10
2019-02-12T07:50:45.785Z,3.20
2019-02-12T07:54:20.070Z,3.20
2019-02-12T07:57:37.773Z,3.20
2019-02-12T08:00:33.656Z,3.30
2019-02-12T08:03:42.561Z,3.30
2019-02-12T08:06:43.421Z,3.40
2019-02-12T08:09:48.874Z,3.40
2019-02-12T08:12:27.523Z,3.50
2019-02-12T08:18:05.190Z,3.50
2019-02-12T08:21:02.256Z,3.50
2019-02-12T08:24:08.827Z,3.50
2019-02-12T08:27:13.882Z,3.50
2019-02-12T08:30:21.172Z,3.40
2019-02-12T08:33:37.833Z,3.60
2019-02-12T08:36:22.997Z,3.60
2019-02-12T08:42:41.229Z,3.50
2019-02-12T08:45:46.214Z,3.40
2019-02-12T08:48:46.870Z,3.30
2019-02-12T08:52:09.581Z,3.30
2019-02-12T08:55:16.038Z,3.40
2019-02-12T08:58:34.082Z,3.40
2019-02-12T09:01:24.495Z,3.40
2019-02-12T09:04:26.654Z,3.30
2019-02-12T09:07:27.127Z,3.40
2019-02-12T09:10:22.558Z,3.30
2019-02-12T09:13:12.532Z,3.30
2019-02-12T09:15:56.187Z,3.30
2019-02-12T09:21:54.801Z,3.10
2019-02-12T09:25:02.906Z,3.20
2019-02-12T09:28:08.733Z,3.10
2019-02-12T09:30:59.058Z,3.20
2019-02-12T09:34:12.207Z,3.20
2019-02-12T09:37:01.333Z,3.20
2019-02-12T09:40:18.845Z,3.20
2019-02-12T09:43:14.705Z,6.00
2019-02-12T09:48:45.381Z,3.20
2019-02-12T09:51:51.005Z,3.40
2019-02-12T09:55:04.480Z,3.60
2019-02-12T09:57:59.940Z,3.60
2019-02-12T10:03:33.154Z,3.50
2019-02-12T10:06:43.581Z,3.60
2019-02-12T10:09:37.733Z,3.60
2019-02-12T10:12:27.811Z,3.50
2019-02-12T10:15:30.842Z,3.60
2019-02-12T10:18:15.121Z,3.70
2019-02-12T10:20:53.473Z,3.60
2019-02-12T10:26:10.974Z,3.80
2019-02-12T10:28:57.396Z,3.60
2019-02-12T10:31:45.538Z,3.70
2019-02-12T10:36:42.524Z,3.50
2019-02-12T10:39:15.034Z,3.80
2019-02-12T10:41:43.720Z,3.80
2019-02-12T10:44:12.645Z,3.90
2019-02-12T10:46:41.313Z,4.00
2019-02-12T10:49:09.990Z,4.00
2019-02-12T10:51:38.664Z,4.10
2019-02-12T10:54:07.413Z,3.90
2019-02-12T10:59:04.890Z,3.80
2019-02-12T11:01:33.700Z,3.80
2019-02-12T11:04:02.390Z,3.80
2019-02-12T11:06:31.065Z,3.60
2019-02-12T11:08:59.862Z,3.60
2019-02-12T11:11:28.849Z,3.50
2019-02-12T11:13:57.538Z,3.60
2019-02-12T11:16:26.246Z,3.60
2019-02-12T11:21:23.276Z,3.80
2019-02-12T11:23:52.005Z,4.00
2019-02-12T11:26:21.018Z,3.80
2019-02-12T11:28:49.842Z,4.00
2019-02-12T11:31:18.829Z,4.10
2019-02-12T11:33:47.501Z,4.00
2019-02-12T11:36:16.242Z,3.90
2019-02-12T11:38:44.993Z,4.00
2019-02-12T11:43:41.993Z,3.80
2019-02-12T11:46:10.722Z,3.90
2019-02-12T11:48:39.390Z,4.20
2019-02-12T11:51:08.052Z,4.30
2019-02-12T11:53:36.825Z,4.40
2019-02-12T11:56:05.525Z,4.50
2019-02-12T11:58:34.461Z,4.60
2019-02-12T12:01:05.854Z,4.50
2019-02-12T12:06:03.860Z,4.60
2019-02-12T12:08:32.537Z,4.60
2019-02-12T12:11:01.217Z,4.50
2019-02-12T12:13:30.242Z,4.40
2019-02-12T12:15:58.916Z,4.50
2019-02-12T12:18:27.571Z,4.40
2019-02-12T12:20:56.229Z,4.50
2019-02-12T12:28:21.965Z,4.50
2019-02-12T12:30:50.741Z,4.60
2019-02-12T12:33:19.492Z,4.60
2019-02-12T12:35:48.168Z,4.70
2019-02-12T12:38:16.812Z,4.80
2019-02-12T12:40:45.513Z,4.50
2019-02-12T12:43:14.225Z,1.80
2019-02-12T12:48:11.517Z,4.10
2019-02-12T12:50:40.240Z,4.30
2019-02-12T12:53:08.914Z,4.20
2019-02-12T12:55:37.589Z,4.10
2019-02-12T12:58:06.735Z,4.10
2019-02-12T13:00:35.427Z,4.20
2019-02-12T13:03:04.182Z,4.30
2019-02-12T13:05:32.842Z,4.30
2019-02-12T13:10:30.075Z,4.40
2019-02-12T13:12:59.018Z,4.40
2019-02-12T13:15:27.758Z,4.40
2019-02-12T13:17:56.504Z,4.60
2019-02-12T13:20:25.156Z,4.80
2019-02-12T13:22:53.833Z,5.00
2019-02-12T13:25:22.535Z,5.00
2019-02-12T13:27:51.277Z,4.90
2019-02-12T13:32:48.337Z,4.90
2019-02-12T13:35:17.017Z,5.00
2019-02-12T13:37:45.701Z,5.10
2019-02-12T13:40:14.397Z,5.10
2019-02-12T13:42:43.051Z,5.30
2019-02-12T13:45:14.056Z,5.40
2019-02-12T13:47:42.775Z,5.70
2019-02-12T13:50:11.537Z,5.90
2019-02-12T13:55:15.403Z,5.90
2019-02-12T13:57:38.920Z,6.10
2019-02-12T14:00:09.862Z,6.10
2019-02-12T14:02:38.540Z,6.10
2019-02-12T14:05:10.151Z,6.10
2019-02-12T14:07:38.850Z,5.90
2019-02-12T14:10:07.814Z,5.70
2019-02-12T14:12:36.846Z,5.50
2019-02-12T14:17:33.997Z,7.90
2019-02-12T14:20:02.742Z,5.50
2019-02-12T14:22:31.507Z,5.40
2019-02-12T14:25:00.230Z,5.40
2019-02-12T14:27:29.225Z,5.40
2019-02-12T14:29:57.959Z,5.40
2019-02-12T14:32:26.702Z,5.40
2019-02-12T14:34:55.439Z,5.30
2019-02-12T14:39:52.446Z,5.30
2019-02-12T14:42:21.138Z,5.20
2019-02-12T14:44:49.904Z,5.20
2019-02-12T14:47:18.846Z,5.30
2019-02-12T14:49:48.124Z,5.30
2019-02-12T14:52:16.929Z,5.40
2019-02-12T14:54:45.624Z,5.40
2019-02-12T14:57:14.300Z,5.30
2019-02-12T15:02:11.437Z,5.20
2019-02-12T15:04:40.117Z,5.20
2019-02-12T15:07:09.097Z,5.20
2019-02-12T15:09:37.879Z,5.20
2019-02-12T15:12:06.670Z,5.20
2019-02-12T15:14:35.330Z,5.20
2019-02-12T15:17:04.269Z,5.20
2019-02-12T15:22:01.242Z,5.00
2019-02-12T15:24:29.917Z,5.10
2019-02-12T15:26:58.594Z,4.90
2019-02-12T15:29:27.354Z,4.80
2019-02-12T15:31:56.009Z,4.90
2019-02-12T15:34:24.721Z,5.10
2019-02-12T15:36:53.402Z,5.00
2019-02-12T15:39:22.069Z,4.90
2019-02-12T15:44:19.389Z,4.90
2019-02-12T15:46:48.316Z,4.90
2019-02-12T15:49:17.062Z,5.00
2019-02-12T15:51:45.817Z,5.00
2019-02-12T15:54:14.728Z,5.00
2019-02-12T15:56:43.493Z,4.80
2019-02-12T15:59:12.823Z,4.90
2019-02-12T16:01:42.575Z,4.90
2019-02-12T16:06:40.305Z,4.80
2019-02-12T16:09:10.410Z,4.80
2019-02-12T16:11:39.992Z,4.70
2019-02-12T16:14:11.914Z,4.60
2019-02-12T16:16:40.573Z,4.60
2019-02-12T16:19:09.661Z,4.60
2019-02-12T16:21:38.482Z,4.60
2019-02-12T16:24:07.269Z,4.40
2019-02-12T16:29:04.318Z,4.30
2019-02-12T16:31:32.998Z,4.30
2019-02-12T16:34:01.691Z,4.30
2019-02-12T16:36:30.470Z,4.30
2019-02-12T16:38:59.155Z,4.40
2019-02-12T16:41:27.853Z,4.30
2019-02-12T16:43:56.552Z,4.20
2019-02-12T16:46:25.355Z,4.10
2019-02-12T16:51:22.514Z,4.20
2019-02-12T16:53:51.210Z,4.10
2019-02-12T16:56:20.222Z,4.10
2019-02-12T16:58:48.997Z,4.00
2019-02-12T17:01:17.677Z,3.90
2019-02-12T17:03:46.374Z,3.80
2019-02-12T17:06:15.070Z,3.60
2019-02-12T17:11:12.085Z,3.60
2019-02-12T17:13:41.222Z,3.50
2019-02-12T17:16:09.933Z,3.50
2019-02-12T17:18:38.669Z,3.50
2019-02-12T17:21:07.604Z,3.50
2019-02-12T17:23:36.293Z,3.50
2019-02-12T17:26:05.262Z,3.40
2019-02-12T17:28:33.933Z,3.30
2019-02-12T17:33:30.970Z,3.30
2019-02-12T17:35:59.779Z,3.20
2019-02-12T17:38:28.435Z,3.20
2019-02-12T17:40:57.257Z,3.00
2019-02-12T17:43:25.942Z,3.00
2019-02-12T17:45:54.690Z,3.00
2019-02-12T17:48:23.356Z,2.90
2019-02-12T17:50:52.018Z,2.80
2019-02-12T17:55:49.270Z,2.70
2019-02-12T17:58:18.290Z,2.80
2019-02-12T18:00:47.062Z,2.80
2019-02-12T18:03:15.821Z,2.80
2019-02-12T18:05:44.523Z,2.80
2019-02-12T18:08:13.193Z,2.70
2019-02-12T18:10:41.989Z,2.80
2019-02-12T18:13:10.709Z,2.80
2019-02-12T18:18:07.841Z,2.80
2019-02-12T18:20:36.610Z,3.00
2019-02-12T18:23:05.475Z,2.90
2019-02-12T18:25:34.209Z,2.90
2019-02-12T18:28:02.921Z,2.80
2019-02-12T18:30:31.654Z,2.70
2019-02-12T18:33:00.350Z,2.70
2019-02-12T18:35:29.129Z,2.60
2019-02-12T18:40:26.168Z,2.60
2019-02-12T18:42:54.938Z,2.50
2019-02-12T18:45:23.702Z,2.40
2019-02-12T18:47:52.411Z,2.40
2019-02-12T18:50:21.117Z,2.50
2019-02-12T18:52:49.842Z,2.50
2019-02-12T18:55:18.786Z,2.50
2019-02-12T18:57:47.653Z,2.60
2019-02-12T19:02:45.646Z,2.60
2019-02-12T19:05:14.365Z,2.70
2019-02-12T19:07:43.124Z,2.80
2019-02-12T19:10:12.528Z,2.80
2019-02-12T19:12:41.485Z,3.00
2019-02-12T19:15:12.217Z,3.00
2019-02-12T19:17:41.265Z,3.00
2019-02-12T19:22:39.297Z,3.00
2019-02-12T19:25:08.694Z,3.10
2019-02-12T19:27:37.456Z,3.20
2019-02-12T19:30:06.713Z,3.10
2019-02-12T19:32:35.491Z,3.10
2019-02-12T19:35:05.018Z,3.10
2019-02-12T19:37:33.851Z,3.10
2019-02-12T19:40:02.616Z,2.90
2019-02-12T19:44:59.790Z,2.80
2019-02-12T19:47:28.520Z,2.80
2019-02-12T19:49:57.730Z,2.80
2019-02-12T19:52:26.487Z,2.70
2019-02-12T19:54:55.319Z,2.80
2019-02-12T19:57:24.098Z,2.80
2019-02-12T19:59:52.893Z,2.90
2019-02-12T20:02:21.630Z,2.90
2019-02-12T20:07:18.723Z,2.90
2019-02-12T20:09:47.625Z,2.90
2019-02-12T20:12:16.574Z,2.90
2019-02-12T20:14:45.486Z,2.90
2019-02-12T20:17:14.308Z,2.80
2019-02-12T20:19:43.018Z,2.80
2019-02-12T20:22:12.012Z,2.80
2019-02-12T20:24:40.787Z,2.50
2019-02-12T20:29:37.985Z,2.50
2019-02-12T20:32:06.644Z,2.60
2019-02-12T20:34:35.361Z,2.60
2019-02-12T20:37:04.074Z,2.50
2019-02-12T20:39:33.765Z,2.50
2019-02-12T20:42:03.458Z,2.50
2019-02-12T20:44:32.446Z,2.50
2019-02-12T20:47:01.527Z,2.90
2019-02-12T20:51:59.133Z,2.70
2019-02-12T20:54:27.891Z,2.70
2019-02-12T20:56:56.596Z,2.80
2019-02-12T20:59:25.262Z,2.80
2019-02-12T21:01:54.984Z,2.70
2019-02-12T21:04:23.660Z,2.70
2019-02-12T21:06:52.377Z,2.60
2019-02-12T21:11:49.692Z,2.60
2019-02-12T21:14:18.401Z,2.60
2019-02-12T21:16:47.353Z,2.50
2019-02-12T21:19:16.138Z,2.40
2019-02-12T21:21:44.886Z,2.40
2019-02-12T21:24:13.548Z,2.40
2019-02-12T21:26:42.286Z,2.40
2019-02-12T21:29:10.950Z,2.40
2019-02-12T21:34:09.961Z,2.40
2019-02-12T21:36:38.689Z,2.40
2019-02-12T21:39:12.778Z,2.50
2019-02-12T21:41:44.037Z,2.50
2019-02-12T21:44:12.809Z,2.50
2019-02-12T21:46:43.283Z,2.50
2019-02-12T21:49:12.104Z,2.50
2019-02-12T21:51:42.508Z,2.40
2019-02-12T21:56:40.763Z,2.20
2019-02-12T21:59:09.700Z,2.10
2019-02-12T22:01:41.617Z,2.10
2019-02-12T22:04:10.593Z,2.00
2019-02-12T22:06:39.360Z,2.00
2019-02-12T22:09:15.308Z,2.00
2019-02-12T22:11:45.278Z,1.90
2019-02-12T22:14:18.736Z,1.80
2019-02-12T22:16:57.441Z,1.90
2019-02-12T22:21:57.752Z,1.80
2019-02-12T22:24:26.488Z,1.80
2019-02-12T22:26:55.256Z,1.80
2019-02-12T22:29:23.947Z,1.60
2019-02-12T22:31:52.620Z,1.60
2019-02-12T22:34:21.317Z,1.70
2019-02-12T22:36:49.988Z,1.70
2019-02-12T22:39:18.673Z,1.60
2019-02-12T22:44:15.716Z,1.50
2019-02-12T22:46:44.512Z,1.60
2019-02-12T22:49:13.392Z,1.70
2019-02-12T22:51:43.337Z,1.60
2019-02-12T22:54:13.420Z,1.70
2019-02-12T22:56:43.345Z,1.70
2019-02-12T22:59:12.128Z,1.70
2019-02-12T23:01:49.758Z,1.70
2019-02-12T23:06:46.849Z,1.70
2019-02-12T23:09:17.453Z,1.80
2019-02-12T23:11:48.262Z,1.80
2019-02-12T23:14:18.457Z,1.80
2019-02-12T23:16:47.109Z,1.90
2019-02-12T23:19:15.766Z,1.90
2019-02-12T23:21:44.424Z,1.80
2019-02-12T23:24:13.194Z,1.70
2019-02-12T23:29:11.491Z,1.70
2019-02-12T23:36:48.444Z,1.80
2019-02-12T23:39:17.145Z,1.80
2019-02-12T23:41:45.824Z,1.70
2019-02-12T23:44:15.717Z,1.60
2019-02-12T23:46:51.652Z,1.60
2019-02-12T23:49:20.376Z,1.50
2019-02-12T23:54:17.384Z,1.50
2019-02-12T23:56:46.116Z,1.40
2019-02-12T23:59:14.786Z,1.30
